Time;durP1;ratioP1;P1;durP2;ratioP2;P2;SDS_P1;SDS_P2;PMS_P1;PMS_P2;Temp;Humidity;BMP_temperature;BMP_pressure;BME280_temperature;BME280_humidity;BME280_pressure;Samples;Min_cycle;Max_cycle;Signal;HPM_P1;HPM_P2
2021/10/04 00:00:47;;;;;;;13.85;1.65;;;8.20;92.30;;;;;;4875471;29;20053;-75
2021/10/04 00:03:14;;;;;;;11.63;1.67;;;8.20;92.10;;;;;;4894866;29;20048;-75
2021/10/04 00:05:42;;;;;;;12.52;1.92;;;8.10;92.10;;;;;;4867434;29;20384;-75
2021/10/04 00:08:09;;;;;;;11.68;1.55;;;8.00;92.20;;;;;;4872383;29;20068;-75
2021/10/04 00:10:37;;;;;;;15.85;2.08;;;8.00;92.30;;;;;;4878019;29;20068;-75
2021/10/04 00:13:05;;;;;;;16.70;2.03;;;8.00;92.20;;;;;;4878317;29;20504;-75
2021/10/04 00:15:33;;;;;;;10.02;2.45;;;7.90;92.20;;;;;;4861523;29;20061;-75
2021/10/04 00:18:00;;;;;;;17.63;1.95;;;7.90;92.40;;;;;;4862043;29;20064;-75
2021/10/04 00:20:28;;;;;;;12.18;2.22;;;7.90;92.60;;;;;;4893961;29;20053;-75
2021/10/04 00:22:57;;;;;;;14.18;2.40;;;7.90;92.60;;;;;;4896398;29;20057;-75
2021/10/04 00:25:26;;;;;;;16.48;2.22;;;7.80;92.60;;;;;;4896224;29;20406;-75
2021/10/04 00:27:53;;;;;;;14.85;2.30;;;7.80;92.70;;;;;;4895644;29;20061;-75
2021/10/04 00:30:21;;;;;;;20.20;2.70;;;7.80;92.70;;;;;;4877899;29;20056;-75
2021/10/04 00:32:51;;;;;;;19.80;2.20;;;7.80;92.70;;;;;;4893836;29;20060;-75
2021/10/04 00:35:21;;;;;;;14.60;2.47;;;7.80;92.70;;;;;;4879467;29;20052;-74
2021/10/04 00:37:49;;;;;;;16.45;2.28;;;7.70;92.90;;;;;;4896286;29;20053;-75
2021/10/04 00:40:20;;;;;;;21.02;2.60;;;7.80;92.90;;;;;;4863734;29;20068;-75
2021/10/04 00:42:49;;;;;;;24.75;3.05;;;7.70;92.80;;;;;;4896884;29;20064;-75
2021/10/04 00:45:17;;;;;;;25.58;2.92;;;7.70;92.90;;;;;;4896100;29;20052;-75
2021/10/04 00:47:44;;;;;;;19.40;2.70;;;7.70;93.20;;;;;;4879441;29;20410;-75
2021/10/04 00:50:13;;;;;;;15.05;1.98;;;7.70;93.00;;;;;;4894142;29;20061;-75
2021/10/04 00:52:41;;;;;;;18.83;2.85;;;7.70;93.20;;;;;;4892844;29;20426;-75
2021/10/04 00:55:09;;;;;;;20.23;2.35;;;7.70;93.40;;;;;;4862246;29;20064;-75
2021/10/04 00:57:38;;;;;;;22.85;2.75;;;7.70;93.20;;;;;;4887398;29;20055;-75
2021/10/04 01:00:10;;;;;;;25.92;2.58;;;7.70;93.20;;;;;;4879598;29;20064;-75
2021/10/04 01:02:38;;;;;;;21.23;2.90;;;7.70;93.20;;;;;;4882204;29;20585;-75
2021/10/04 01:05:08;;;;;;;17.13;2.40;;;7.70;93.30;;;;;;4888953;29;20394;-76
2021/10/04 01:07:37;;;;;;;14.02;2.60;;;7.70;93.50;;;;;;4901089;29;20060;-75
2021/10/04 01:10:09;;;;;;;23.42;2.60;;;7.70;93.40;;;;;;4900210;29;20061;-74
2021/10/04 01:12:55;;;;;;;15.63;2.50;;;7.70;93.30;;;;;;4900495;29;20053;-75
2021/10/04 01:15:22;;;;;;;23.83;2.92;;;7.60;93.40;;;;;;4889032;29;20411;-75
2021/10/04 01:17:50;;;;;;;25.75;2.72;;;7.60;93.40;;;;;;4881417;29;20060;-75
2021/10/04 01:20:19;;;;;;;23.75;2.67;;;7.60;93.40;;;;;;4878380;29;20396;-74
2021/10/04 01:22:47;;;;;;;21.20;3.15;;;7.60;93.60;;;;;;4899964;29;20064;-74
2021/10/04 01:25:18;;;;;;;25.92;3.15;;;7.60;93.70;;;;;;4898431;29;20049;-74
2021/10/04 01:27:47;;;;;;;22.00;3.22;;;7.50;93.60;;;;;;4899700;29;20063;-74
2021/10/04 01:30:17;;;;;;;29.48;3.30;;;7.50;93.70;;;;;;4897082;29;20060;-74
2021/10/04 01:32:45;;;;;;;23.65;2.92;;;7.50;93.70;;;;;;4882756;29;20072;-74
2021/10/04 01:35:13;;;;;;;26.45;3.17;;;7.60;93.90;;;;;;4886894;29;20064;-74
2021/10/04 01:37:41;;;;;;;23.48;2.90;;;7.50;93.80;;;;;;4880467;29;20061;-74
2021/10/04 01:40:10;;;;;;;25.30;2.83;;;7.60;94.10;;;;;;4880102;29;20052;-74
2021/10/04 01:42:38;;;;;;;32.78;3.00;;;7.60;94.10;;;;;;4880156;29;20049;-74
2021/10/04 01:45:10;;;;;;;28.48;2.97;;;7.70;94.00;;;;;;4887444;29;20514;-74
2021/10/04 01:47:37;;;;;;;34.00;2.88;;;7.60;94.00;;;;;;4898313;29;20052;-74
2021/10/04 01:50:07;;;;;;;22.27;2.92;;;7.60;94.00;;;;;;4895891;29;20616;-74
2021/10/04 01:52:35;;;;;;;23.88;2.42;;;7.60;94.10;;;;;;4898788;29;20052;-74
2021/10/04 01:55:04;;;;;;;21.58;2.25;;;7.70;94.20;;;;;;4881713;29;20411;-75
2021/10/04 01:57:31;;;;;;;23.65;2.70;;;7.70;93.70;;;;;;4899520;29;20051;-74
2021/10/04 02:00:02;;;;;;;22.23;2.70;;;7.50;93.50;;;;;;4888082;29;20049;-74
2021/10/04 02:02:42;;;;;;;33.15;3.38;;;7.50;93.50;;;;;;4890373;29;20514;-75
2021/10/04 02:05:11;;;;;;;22.65;2.53;;;7.40;93.70;;;;;;4890012;29;20518;-74
2021/10/04 02:07:40;;;;;;;27.40;2.72;;;7.40;93.90;;;;;;4881715;29;20055;-74
2021/10/04 02:10:12;;;;;;;24.63;2.60;;;7.40;94.00;;;;;;4902725;29;20052;-74
2021/10/04 02:12:40;;;;;;;23.73;3.10;;;7.40;94.20;;;;;;4890750;29;20048;-74
2021/10/04 02:15:09;;;;;;;16.52;2.25;;;7.40;94.20;;;;;;4914110;29;20075;-74
2021/10/04 02:17:38;;;;;;;21.95;3.00;;;7.50;94.50;;;;;;4914945;29;20255;-73
2021/10/04 02:20:10;;;;;;;19.30;2.60;;;7.50;94.30;;;;;;4903435;29;20056;-74
2021/10/04 02:22:38;;;;;;;24.65;2.22;;;7.50;94.20;;;;;;4897364;29;20071;-74
2021/10/04 02:25:07;;;;;;;18.48;2.38;;;7.50;94.10;;;;;;4898922;29;20060;-74
2021/10/04 02:27:34;;;;;;;17.65;2.30;;;7.40;94.10;;;;;;4917346;29;20473;-74
2021/10/04 02:30:11;;;;;;;16.77;2.20;;;7.40;94.10;;;;;;4916779;29;20063;-74
2021/10/04 02:32:38;;;;;;;23.38;3.53;;;7.40;94.30;;;;;;4882971;29;20048;-74
2021/10/04 02:35:07;;;;;;;24.15;2.65;;;7.50;94.50;;;;;;4896884;29;20407;-74
2021/10/04 02:37:35;;;;;;;16.38;2.33;;;7.50;94.80;;;;;;4882146;29;20044;-75
2021/10/04 02:40:04;;;;;;;26.38;3.40;;;7.60;95.10;;;;;;4890248;29;20057;-75
2021/10/04 02:42:33;;;;;;;20.45;2.60;;;7.70;95.00;;;;;;4883812;29;20371;-75
2021/10/04 02:45:02;;;;;;;17.27;2.08;;;7.70;94.60;;;;;;4887930;29;20056;-75
2021/10/04 02:47:30;;;;;;;19.88;2.47;;;7.70;94.60;;;;;;4863127;29;20064;-74
2021/10/04 02:49:57;;;;;;;18.10;2.25;;;7.70;94.60;;;;;;4880445;29;20147;-74
2021/10/04 02:52:25;;;;;;;16.75;2.20;;;7.80;94.70;;;;;;4898187;29;20067;-75
2021/10/04 02:54:53;;;;;;;18.92;2.40;;;7.80;94.40;;;;;;4917017;29;20044;-75
2021/10/04 02:57:20;;;;;;;19.33;2.28;;;7.80;94.30;;;;;;4911098;29;20601;-75
2021/10/04 02:59:48;;;;;;;18.65;2.45;;;7.70;94.20;;;;;;4918197;29;20044;-74
2021/10/04 03:02:15;;;;;;;22.85;2.70;;;7.70;94.30;;;;;;4893970;29;20044;-75
2021/10/04 03:04:43;;;;;;;20.38;2.30;;;7.70;94.50;;;;;;4905535;29;20277;-74
2021/10/04 03:07:11;;;;;;;22.20;2.45;;;7.70;94.40;;;;;;4910803;29;20052;-74
2021/10/04 03:09:38;;;;;;;16.90;2.60;;;7.80;94.60;;;;;;4911591;29;20549;-73
2021/10/04 03:12:06;;;;;;;16.27;2.55;;;7.80;94.50;;;;;;4911400;29;20044;-73
2021/10/04 03:14:34;;;;;;;17.48;3.50;;;7.80;94.40;;;;;;4910326;29;20053;-74
2021/10/04 03:17:02;;;;;;;19.60;3.80;;;7.80;94.60;;;;;;4914984;29;20410;-73
2021/10/04 03:19:30;;;;;;;17.23;2.90;;;7.80;94.50;;;;;;4916317;29;20055;-73
2021/10/04 03:21:58;;;;;;;21.23;2.80;;;7.90;94.60;;;;;;4888955;29;20384;-73
2021/10/04 03:24:25;;;;;;;17.48;2.50;;;7.90;94.50;;;;;;4879700;29;20056;-74
2021/10/04 03:26:53;;;;;;;12.68;1.88;;;7.90;94.50;;;;;;4901249;29;20055;-74
2021/10/04 03:29:20;;;;;;;13.30;1.90;;;7.90;94.50;;;;;;4888717;29;20068;-74
2021/10/04 03:31:48;;;;;;;21.30;2.38;;;7.90;94.60;;;;;;4910271;29;20391;-74
2021/10/04 03:34:16;;;;;;;24.23;1.98;;;7.90;94.40;;;;;;4914970;29;20044;-74
2021/10/04 03:36:44;;;;;;;16.80;2.90;;;7.90;94.40;;;;;;4912014;29;20056;-74
2021/10/04 03:39:12;;;;;;;15.27;2.05;;;7.80;94.20;;;;;;4909679;29;20056;-74
2021/10/04 03:41:40;;;;;;;16.05;1.90;;;7.80;94.00;;;;;;4910730;29;20063;-74
2021/10/04 03:44:08;;;;;;;15.10;1.90;;;7.70;93.80;;;;;;4894550;29;20052;-74
2021/10/04 03:46:35;;;;;;;21.00;2.38;;;7.70;93.90;;;;;;4912531;29;20048;-74
2021/10/04 03:49:03;;;;;;;17.92;1.80;;;7.60;94.00;;;;;;4910241;29;20048;-75
2021/10/04 03:51:31;;;;;;;21.30;2.15;;;7.60;94.00;;;;;;4913434;29;20060;-74
2021/10/04 03:53:58;;;;;;;16.00;2.00;;;7.60;94.20;;;;;;4912690;29;20056;-74
2021/10/04 03:56:26;;;;;;;13.35;2.10;;;7.50;94.20;;;;;;4909994;29;20063;-74
2021/10/04 03:58:53;;;;;;;20.20;2.80;;;7.50;94.20;;;;;;4898066;29;20078;-74
2021/10/04 04:01:21;;;;;;;14.00;1.83;;;7.50;94.20;;;;;;4913132;29;20063;-74
2021/10/04 04:03:51;;;;;;;24.25;2.50;;;7.40;94.10;;;;;;4914829;29;20467;-74
2021/10/04 04:06:20;;;;;;;15.05;2.10;;;7.30;94.00;;;;;;4909290;29;20037;-74
2021/10/04 04:08:47;;;;;;;12.55;2.33;;;7.30;94.00;;;;;;4909301;29;20060;-74
2021/10/04 04:11:15;;;;;;;14.05;2.42;;;7.30;94.10;;;;;;4911757;29;20045;-74
2021/10/04 04:13:42;;;;;;;20.30;3.03;;;7.20;94.10;;;;;;4892153;29;20056;-74
2021/10/04 04:16:11;;;;;;;16.60;2.80;;;7.20;94.00;;;;;;4914400;29;20409;-74
2021/10/04 04:18:38;;;;;;;14.95;2.50;;;7.10;93.90;;;;;;4905772;29;20048;-74
2021/10/04 04:21:07;;;;;;;11.38;2.00;;;7.00;93.80;;;;;;4895291;29;20045;-74
2021/10/04 04:23:37;;;;;;;18.65;2.60;;;6.90;93.90;;;;;;4897534;29;20056;-74
2021/10/04 04:26:05;;;;;;;11.13;2.78;;;6.90;94.00;;;;;;4911629;29;20724;-74
2021/10/04 04:28:33;;;;;;;11.68;1.92;;;6.80;94.00;;;;;;4909089;29;20494;-74
2021/10/04 04:31:01;;;;;;;13.73;1.90;;;6.80;94.10;;;;;;4913640;29;20060;-74
2021/10/04 04:33:29;;;;;;;12.15;2.10;;;6.80;94.50;;;;;;4897822;29;20055;-74
2021/10/04 04:35:56;;;;;;;13.77;1.77;;;6.80;94.50;;;;;;4918777;29;20402;-74
2021/10/04 04:38:24;;;;;;;10.95;1.83;;;6.90;94.80;;;;;;4911500;29;20040;-73
2021/10/04 04:40:51;;;;;;;9.70;1.90;;;6.90;94.70;;;;;;4899332;29;20055;-74
2021/10/04 04:43:19;;;;;;;10.05;1.90;;;6.80;94.50;;;;;;4918263;29;20047;-74
2021/10/04 04:45:46;;;;;;;12.98;1.90;;;6.90;94.60;;;;;;4901535;29;20047;-74
2021/10/04 04:48:14;;;;;;;11.85;2.13;;;6.90;94.80;;;;;;4918143;29;20048;-74
2021/10/04 04:50:42;;;;;;;12.85;2.05;;;6.90;94.70;;;;;;4913067;29;20689;-74
2021/10/04 04:53:09;;;;;;;10.63;2.38;;;6.90;94.50;;;;;;4915544;29;20068;-74
2021/10/04 04:55:37;;;;;;;13.07;2.53;;;6.90;94.60;;;;;;4898701;29;20040;-75
2021/10/04 04:58:06;;;;;;;14.30;1.95;;;6.90;94.90;;;;;;4917996;29;20075;-74
2021/10/04 05:00:34;;;;;;;8.10;1.75;;;6.90;94.90;;;;;;4913746;29;20523;-73
2021/10/04 05:03:02;;;;;;;16.40;2.10;;;7.00;95.10;;;;;;4917795;29;20383;-73
2021/10/04 05:05:29;;;;;;;12.00;1.80;;;7.00;95.30;;;;;;4913527;29;20402;-73
2021/10/04 05:07:57;;;;;;;15.25;2.10;;;7.10;95.40;;;;;;4910294;29;20071;-74
2021/10/04 05:10:24;;;;;;;8.27;1.98;;;7.20;95.40;;;;;;4916179;29;20060;-73
2021/10/04 05:12:52;;;;;;;15.82;2.22;;;7.20;95.20;;;;;;4899382;29;20056;-74
2021/10/04 05:15:19;;;;;;;11.68;1.67;;;7.30;95.40;;;;;;4915985;29;20052;-74
2021/10/04 05:17:47;;;;;;;13.25;2.30;;;7.30;95.60;;;;;;4899725;29;20052;-73
2021/10/04 05:20:14;;;;;;;18.67;1.88;;;7.40;95.60;;;;;;4917336;29;20521;-73
2021/10/04 05:22:42;;;;;;;11.60;1.70;;;7.40;95.60;;;;;;4911942;29;20064;-73
2021/10/04 05:25:11;;;;;;;13.65;1.98;;;7.50;95.40;;;;;;4914487;29;20048;-73
2021/10/04 05:27:39;;;;;;;7.95;1.65;;;7.50;95.30;;;;;;4916752;29;20040;-73
2021/10/04 05:30:08;;;;;;;11.68;2.38;;;7.50;95.40;;;;;;4910794;29;20052;-73
2021/10/04 05:32:37;;;;;;;13.90;2.30;;;7.50;95.10;;;;;;4913237;29;20487;-73
2021/10/04 05:35:06;;;;;;;15.20;1.92;;;7.50;95.10;;;;;;4908382;29;20044;-73
2021/10/04 05:37:34;;;;;;;14.32;1.90;;;7.50;95.20;;;;;;4897540;29;20419;-74
2021/10/04 05:40:02;;;;;;;9.18;1.90;;;7.50;95.20;;;;;;4912766;29;20067;-74
2021/10/04 05:42:32;;;;;;;11.45;2.90;;;7.50;95.30;;;;;;4896889;29;20044;-74
2021/10/04 05:45:01;;;;;;;13.65;2.00;;;7.60;95.40;;;;;;4898297;29;20048;-74
2021/10/04 05:47:29;;;;;;;10.93;1.83;;;7.60;95.30;;;;;;4914326;29;20048;-74
2021/10/04 05:49:56;;;;;;;14.70;2.38;;;7.60;95.20;;;;;;4896180;29;20051;-74
2021/10/04 05:52:24;;;;;;;13.55;2.10;;;7.60;95.20;;;;;;4911446;29;20051;-74
2021/10/04 05:54:51;;;;;;;15.57;2.90;;;7.60;95.30;;;;;;4912636;29;20222;-74
2021/10/04 05:57:20;;;;;;;13.25;1.92;;;7.60;95.40;;;;;;4903917;29;20061;-74
2021/10/04 05:59:48;;;;;;;16.92;2.72;;;7.60;95.30;;;;;;4889773;29;20045;-74
2021/10/04 06:02:16;;;;;;;11.43;2.15;;;7.60;95.20;;;;;;4897244;29;20041;-74
2021/10/04 06:04:43;;;;;;;8.52;1.65;;;7.60;95.30;;;;;;4903906;29;20052;-74
2021/10/04 06:07:11;;;;;;;10.80;2.10;;;7.70;95.60;;;;;;4901947;29;20056;-74
2021/10/04 06:09:38;;;;;;;13.02;2.38;;;7.70;95.60;;;;;;4888618;29;20060;-74
2021/10/04 06:12:06;;;;;;;12.30;2.58;;;7.70;95.60;;;;;;4880117;29;20068;-74
2021/10/04 06:14:37;;;;;;;8.93;1.65;;;7.70;95.80;;;;;;4889024;29;20029;-74
2021/10/04 06:17:05;;;;;;;7.72;1.75;;;7.80;95.80;;;;;;4864377;29;20407;-73
2021/10/04 06:19:33;;;;;;;11.60;2.45;;;7.80;95.70;;;;;;4883755;29;20045;-74
2021/10/04 06:22:00;;;;;;;10.27;2.00;;;7.80;95.50;;;;;;4878510;29;20411;-73
2021/10/04 06:24:29;;;;;;;10.23;1.90;;;7.80;95.40;;;;;;4880982;29;20051;-75
2021/10/04 06:26:57;;;;;;;10.20;2.50;;;7.70;95.30;;;;;;4878782;29;20067;-74
2021/10/04 06:29:24;;;;;;;14.18;2.53;;;7.70;95.30;;;;;;4880742;29;20052;-74
2021/10/04 06:31:52;;;;;;;9.52;2.28;;;7.70;95.50;;;;;;4892914;29;20486;-74
2021/10/04 06:34:24;;;;;;;10.95;2.03;;;7.70;95.30;;;;;;4863595;29;20423;-74
2021/10/04 06:36:51;;;;;;;11.82;1.75;;;7.70;95.10;;;;;;4904226;29;20403;-74
2021/10/04 06:39:19;;;;;;;9.00;1.90;;;7.70;95.10;;;;;;4877155;29;20041;-74
2021/10/04 06:41:46;;;;;;;10.02;1.85;;;7.70;95.20;;;;;;4864328;29;20053;-74
2021/10/04 06:44:14;;;;;;;11.82;2.20;;;7.70;95.30;;;;;;4859362;29;20419;-74
2021/10/04 06:47:00;;;;;;;13.05;1.80;;;7.60;95.20;;;;;;4894235;29;20065;-74
2021/10/04 06:49:32;;;;;;;12.13;2.30;;;7.70;95.40;;;;;;4881374;29;20407;-74
2021/10/04 06:52:01;;;;;;;11.40;2.03;;;7.70;95.30;;;;;;4866317;29;20052;-74
2021/10/04 06:54:28;;;;;;;8.77;1.58;;;7.70;95.40;;;;;;4880998;29;20049;-74
2021/10/04 06:56:56;;;;;;;15.20;2.05;;;7.70;95.40;;;;;;4886083;29;20056;-74
2021/10/04 06:59:23;;;;;;;12.68;1.65;;;7.70;95.50;;;;;;4897728;29;20063;-74
2021/10/04 07:01:51;;;;;;;9.52;2.08;;;7.70;95.40;;;;;;4866062;29;20052;-74
2021/10/04 07:04:19;;;;;;;6.40;1.65;;;7.70;95.40;;;;;;4893492;29;20372;-74
2021/10/04 07:06:46;;;;;;;8.65;1.85;;;7.80;95.50;;;;;;4902726;29;20047;-73
2021/10/04 07:09:14;;;;;;;8.55;2.10;;;7.80;95.50;;;;;;4916901;29;20052;-73
2021/10/04 07:11:42;;;;;;;7.07;1.85;;;7.80;95.60;;;;;;4916224;29;20063;-74
2021/10/04 07:14:09;;;;;;;15.90;1.80;;;7.80;95.60;;;;;;4900253;29;20486;-73
2021/10/04 07:16:37;;;;;;;14.10;1.65;;;7.90;95.60;;;;;;4917001;29;20063;-73
2021/10/04 07:19:05;;;;;;;10.63;1.50;;;8.00;95.70;;;;;;4892292;29;20068;-74
2021/10/04 07:21:33;;;;;;;7.95;1.63;;;8.00;95.80;;;;;;4882677;29;20065;-74
2021/10/04 07:24:01;;;;;;;8.00;1.60;;;8.00;95.80;;;;;;4891070;29;20049;-74
2021/10/04 07:26:30;;;;;;;8.32;1.27;;;8.10;95.80;;;;;;4862483;29;20502;-74
2021/10/04 07:29:00;;;;;;;5.07;1.80;;;8.20;95.80;;;;;;4879984;29;20380;-73
2021/10/04 07:31:28;;;;;;;12.57;1.75;;;8.20;95.80;;;;;;4888213;29;20053;-73
2021/10/04 07:34:01;;;;;;;5.18;1.65;;;8.30;95.70;;;;;;4880426;29;20049;-74
2021/10/04 07:36:28;;;;;;;6.60;1.20;;;8.30;95.60;;;;;;4899272;29;20517;-74
2021/10/04 07:38:56;;;;;;;8.82;1.40;;;8.30;95.70;;;;;;4916135;29;20048;-74
2021/10/04 07:41:23;;;;;;;5.53;1.20;;;8.40;95.70;;;;;;4915165;29;20059;-73
2021/10/04 07:43:51;;;;;;;4.32;1.42;;;8.40;95.60;;;;;;4899637;29;20036;-74
2021/10/04 07:46:23;;;;;;;8.02;1.38;;;8.40;95.40;;;;;;4899742;29;20060;-74
2021/10/04 07:48:51;;;;;;;8.68;1.77;;;8.50;95.40;;;;;;4916883;29;20048;-74
2021/10/04 07:51:19;;;;;;;9.73;1.70;;;8.50;95.50;;;;;;4916635;29;20067;-73
2021/10/04 07:53:48;;;;;;;4.63;1.63;;;8.60;95.40;;;;;;4901043;29;20059;-74
2021/10/04 07:56:16;;;;;;;7.47;1.30;;;8.60;95.40;;;;;;4915125;29;20410;-74
2021/10/04 07:58:43;;;;;;;7.70;1.33;;;8.70;95.40;;;;;;4899013;29;20060;-74
2021/10/04 08:01:13;;;;;;;6.13;1.38;;;8.80;95.30;;;;;;4916438;29;20059;-74
2021/10/04 08:03:41;;;;;;;6.50;1.00;;;8.80;95.30;;;;;;4883047;29;20063;-74
2021/10/04 08:06:09;;;;;;;3.25;0.80;;;8.90;95.20;;;;;;4915914;29;20513;-74
2021/10/04 08:08:36;;;;;;;5.78;1.27;;;9.00;95.10;;;;;;4899236;29;20063;-74
2021/10/04 08:11:04;;;;;;;7.95;1.20;;;9.20;95.00;;;;;;4915816;29;20048;-74
2021/10/04 08:13:32;;;;;;;5.72;1.17;;;9.30;94.90;;;;;;4915897;29;20052;-74
2021/10/04 08:16:00;;;;;;;9.30;1.67;;;9.50;94.60;;;;;;4899108;29;20060;-74
2021/10/04 08:18:30;;;;;;;7.47;1.27;;;9.70;94.30;;;;;;4898733;29;20056;-74
2021/10/04 08:20:58;;;;;;;7.82;1.38;;;9.80;93.60;;;;;;4899162;29;20071;-75
2021/10/04 08:23:26;;;;;;;4.50;1.02;;;9.90;93.30;;;;;;4898869;29;20063;-74
2021/10/04 08:25:54;;;;;;;4.55;0.80;;;10.10;93.00;;;;;;4898759;29;20060;-75
2021/10/04 08:28:22;;;;;;;5.40;0.80;;;10.20;92.10;;;;;;4914576;29;20063;-74
2021/10/04 08:30:50;;;;;;;7.28;1.02;;;10.30;91.60;;;;;;4915161;29;20079;-74
2021/10/04 08:33:17;;;;;;;5.90;0.85;;;10.30;91.50;;;;;;4915691;29;20067;-75
2021/10/04 08:35:45;;;;;;;5.28;1.10;;;10.40;91.40;;;;;;4898625;29;20056;-75
2021/10/04 08:38:12;;;;;;;5.20;1.10;;;10.40;90.50;;;;;;4899175;29;20833;-75
2021/10/04 08:40:40;;;;;;;7.75;1.15;;;10.50;90.60;;;;;;4892848;29;20048;-75
2021/10/04 08:43:08;;;;;;;6.57;1.10;;;10.60;90.10;;;;;;4910352;29;20053;-75
2021/10/04 08:45:36;;;;;;;7.97;1.13;;;10.70;89.80;;;;;;4896514;29;20048;-75
2021/10/04 08:48:06;;;;;;;11.60;1.10;;;10.80;89.50;;;;;;4909784;29;20067;-75
2021/10/04 08:50:34;;;;;;;10.02;1.73;;;11.00;89.50;;;;;;4898366;29;20534;-75
2021/10/04 08:53:02;;;;;;;9.73;1.08;;;11.20;89.40;;;;;;4915338;29;20064;-75
2021/10/04 08:55:31;;;;;;;3.58;1.13;;;11.30;88.90;;;;;;4915450;29;20059;-75
2021/10/04 08:57:59;;;;;;;2.70;0.80;;;11.50;87.40;;;;;;4915564;29;20052;-75
2021/10/04 09:00:27;;;;;;;4.43;0.90;;;11.60;87.20;;;;;;4915620;29;20059;-75
2021/10/04 09:03:03;;;;;;;5.38;0.80;;;11.80;85.80;;;;;;4909780;29;20055;-75
2021/10/04 09:05:33;;;;;;;14.38;1.48;;;11.80;86.20;;;;;;4888875;29;20057;-75
2021/10/04 09:08:07;;;;;;;7.40;0.80;;;11.90;85.70;;;;;;4910263;29;20422;-75
2021/10/04 09:10:39;;;;;;;9.50;1.00;;;12.00;85.20;;;;;;4913674;29;20048;-75
2021/10/04 09:13:09;;;;;;;2.38;0.50;;;12.20;85.00;;;;;;4914806;29;20063;-75
2021/10/04 09:15:45;;;;;;;5.68;1.02;;;12.30;83.90;;;;;;4914219;29;20048;-75
2021/10/04 09:18:15;;;;;;;7.80;0.55;;;12.40;83.50;;;;;;4918487;29;20048;-75
2021/10/04 09:20:58;;;;;;;4.38;0.73;;;12.40;82.80;;;;;;4900890;29;20047;-75
2021/10/04 09:23:27;;;;;;;3.08;0.47;;;12.40;82.30;;;;;;4912676;29;20506;-75
2021/10/04 09:25:55;;;;;;;4.70;0.77;;;12.30;82.50;;;;;;4917951;29;20383;-75
2021/10/04 09:28:44;;;;;;;4.88;0.73;;;12.30;82.20;;;;;;4887733;29;20059;-75
2021/10/04 09:31:27;;;;;;;4.07;0.63;;;12.20;82.60;;;;;;4897866;29;20052;-75
2021/10/04 09:34:11;;;;;;;2.95;0.57;;;12.20;82.50;;;;;;4916678;29;20410;-75
2021/10/04 09:36:41;;;;;;;;;;;12.10;82.00;;;;;;4916322;29;20044;-75
2021/10/04 09:39:21;;;;;;;5.78;0.70;;;12.20;82.40;;;;;;4896808;29;20369;-75
2021/10/04 09:42:10;;;;;;;3.47;0.75;;;12.30;82.50;;;;;;4909263;29;20056;-75
2021/10/04 09:44:50;;;;;;;5.00;0.75;;;12.50;81.40;;;;;;4899291;29;20739;-75
2021/10/04 09:47:30;;;;;;;3.40;0.77;;;12.60;80.10;;;;;;4915746;29;20056;-75
2021/10/04 09:50:10;;;;;;;3.95;0.80;;;12.70;79.90;;;;;;4916767;29;20059;-74
2021/10/04 09:52:37;;;;;;;4.53;1.00;;;12.80;78.60;;;;;;4915728;29;20379;-75
2021/10/04 09:55:14;;;;;;;5.35;0.80;;;12.70;78.70;;;;;;4916657;29;20051;-75
2021/10/04 09:57:42;;;;;;;4.22;1.00;;;12.70;78.70;;;;;;4899231;29;20063;-75
2021/10/04 10:00:09;;;;;;;3.95;0.77;;;12.70;79.30;;;;;;4885621;29;20494;-75
2021/10/04 10:02:37;;;;;;;1.85;0.52;;;12.80;78.30;;;;;;4917873;29;20395;-75
2021/10/04 10:05:06;;;;;;;6.00;0.60;;;12.80;77.30;;;;;;4917935;29;20516;-75
2021/10/04 10:07:34;;;;;;;3.80;0.93;;;12.90;77.60;;;;;;4917409;29;20529;-75
2021/10/04 10:10:02;;;;;;;2.47;0.60;;;13.00;77.30;;;;;;4917709;29;20051;-75
2021/10/04 10:12:29;;;;;;;5.38;0.70;;;13.20;76.10;;;;;;4917697;29;20048;-76
2021/10/04 10:15:02;;;;;;;6.95;1.00;;;13.30;75.20;;;;;;4917732;29;20052;-75
2021/10/04 10:17:33;;;;;;;9.95;1.55;;;13.20;75.50;;;;;;4917718;29;20044;-75
2021/10/04 10:20:01;;;;;;;9.20;1.30;;;13.30;76.20;;;;;;4916795;29;20056;-76
2021/10/04 10:22:29;;;;;;;8.02;1.40;;;13.30;76.40;;;;;;4916222;29;20056;-76
2021/10/04 10:24:57;;;;;;;5.72;1.02;;;13.50;75.50;;;;;;4916387;29;20414;-76
2021/10/04 10:27:42;;;;;;;5.78;0.93;;;13.50;75.10;;;;;;4917436;29;20040;-76
2021/10/04 10:30:24;;;;;;;7.53;1.38;;;13.50;73.90;;;;;;4912102;29;20056;-76
2021/10/04 10:32:52;;;;;;;33.45;2.95;;;13.60;74.60;;;;;;4900274;29;20060;-75
2021/10/04 10:35:44;;;;;;;5.68;1.13;;;13.70;74.30;;;;;;4901046;29;20076;-74
2021/10/04 10:38:12;;;;;;;6.10;1.10;;;13.80;73.50;;;;;;4897958;29;20064;-74
2021/10/04 10:40:40;;;;;;;7.85;1.23;;;13.90;73.60;;;;;;4917080;29;20058;-75
2021/10/04 10:43:09;;;;;;;7.90;1.75;;;13.90;73.40;;;;;;4915826;29;20425;-75
2021/10/04 10:45:57;;;;;;;7.28;0.90;;;13.90;73.20;;;;;;4916193;29;20052;-75
2021/10/04 10:48:40;;;;;;;6.32;0.90;;;13.90;71.30;;;;;;4898761;29;20062;-75
2021/10/04 10:51:13;;;;;;;4.38;1.00;;;14.00;71.90;;;;;;4915499;29;20052;-74
2021/10/04 10:53:41;;;;;;;11.48;1.42;;;14.00;72.70;;;;;;4915262;29;20048;-75
2021/10/04 10:56:09;;;;;;;8.55;1.20;;;14.10;72.50;;;;;;4914469;29;20425;-75
2021/10/04 10:58:37;;;;;;;15.35;1.85;;;14.20;71.50;;;;;;4915596;29;20486;-77
2021/10/04 11:01:17;;;;;;;6.95;1.05;;;14.10;72.10;;;;;;4915808;29;20498;-76
2021/10/04 11:03:54;;;;;;;6.13;1.00;;;14.20;72.00;;;;;;4896479;29;20052;-75
2021/10/04 11:06:39;;;;;;;14.13;1.02;;;14.00;71.80;;;;;;4915261;29;20044;-76
2021/10/04 11:09:07;;;;;;;12.25;1.70;;;13.80;72.10;;;;;;4917839;29;20060;-75
2021/10/04 11:11:34;;;;;;;22.48;1.92;;;13.80;72.60;;;;;;4910931;29;20056;-75
2021/10/04 11:14:08;;;;;;;14.95;2.03;;;13.80;73.10;;;;;;4915500;29;20048;-75
2021/10/04 11:16:43;;;;;;;18.63;2.70;;;14.00;73.20;;;;;;4899098;29;20052;-75
2021/10/04 11:19:27;;;;;;;16.65;2.03;;;14.30;71.70;;;;;;4898201;29;20048;-81
2021/10/04 11:21:55;;;;;;;7.32;1.08;;;14.40;71.10;;;;;;4910504;29;20126;-75
2021/10/04 11:24:24;;;;;;;13.88;2.00;;;14.40;71.20;;;;;;4913182;29;20044;-77
2021/10/04 11:26:52;;;;;;;5.03;1.17;;;14.40;71.10;;;;;;4898408;29;20063;-74
2021/10/04 11:29:21;;;;;;;10.23;1.40;;;14.40;70.80;;;;;;4913955;29;20048;-75
2021/10/04 11:31:50;;;;;;;4.47;0.80;;;14.40;71.10;;;;;;4897944;29;20047;-75
2021/10/04 11:34:21;;;;;;;4.10;0.82;;;14.60;71.20;;;;;;4914567;29;20832;-75
2021/10/04 11:36:52;;;;;;;16.65;2.35;;;14.70;70.40;;;;;;4898206;29;20052;-75
2021/10/04 11:39:22;;;;;;;12.07;1.63;;;14.60;70.30;;;;;;4914282;29;20056;-74
2021/10/04 11:42:06;;;;;;;13.43;1.65;;;14.70;70.20;;;;;;4914859;29;20052;-76
2021/10/04 11:44:36;;;;;;;;;;;14.70;70.60;;;;;;4913899;29;20478;-76
2021/10/04 11:47:06;;;;;;;4.68;1.00;;;14.80;68.60;;;;;;4914971;29;19923;-75
2021/10/04 11:49:40;;;;;;;13.68;1.50;;;14.80;67.20;;;;;;4915134;29;20508;-76
2021/10/04 11:52:15;;;;;;;4.85;0.90;;;15.10;67.10;;;;;;4898178;29;20521;-75
2021/10/04 11:54:44;;;;;;;25.27;3.08;;;15.40;66.10;;;;;;4914567;29;20052;-74
2021/10/04 11:57:20;;;;;;;6.88;1.10;;;15.70;65.10;;;;;;4914598;29;20048;-75
2021/10/04 12:00:02;;;;;;;3.28;0.60;;;15.70;65.30;;;;;;4907917;29;20320;-75
2021/10/04 12:02:45;;;;;;;8.52;1.00;;;15.70;64.40;;;;;;4912047;29;20055;-75
2021/10/04 12:05:28;;;;;;;5.47;0.73;;;15.60;64.20;;;;;;4896736;29;20063;-74
2021/10/04 12:08:09;;;;;;;8.38;1.33;;;15.30;63.70;;;;;;4915020;29;20048;-74
2021/10/04 12:10:42;;;;;;;6.22;1.20;;;14.90;65.40;;;;;;4911443;29;20052;-75
2021/10/04 12:13:12;;;;;;;6.30;0.98;;;14.60;66.80;;;;;;4911661;29;20130;-74
2021/10/04 12:15:41;;;;;;;6.65;1.13;;;14.60;67.90;;;;;;4897771;29;20063;-74
2021/10/04 12:18:19;;;;;;;5.60;1.23;;;14.50;68.60;;;;;;4914841;29;20052;-74
2021/10/04 12:21:12;;;;;;;7.25;1.20;;;14.50;68.90;;;;;;4913641;29;20384;-74
2021/10/04 12:23:40;;;;;;;5.40;0.70;;;14.50;69.40;;;;;;4898256;29;20052;-75
2021/10/04 12:26:12;;;;;;;4.65;1.10;;;14.50;69.70;;;;;;4898736;29;20486;-75
2021/10/04 12:28:46;;;;;;;9.55;1.45;;;14.50;69.60;;;;;;4915533;29;20048;-75
2021/10/04 12:31:37;;;;;;;6.60;1.05;;;14.50;69.60;;;;;;4901057;29;20044;-74
2021/10/04 12:34:21;;;;;;;4.70;1.08;;;14.60;68.60;;;;;;4877766;29;20072;-75
2021/10/04 12:36:51;;;;;;;4.68;0.82;;;14.80;67.30;;;;;;4912429;29;20067;-75
2021/10/04 12:39:19;;;;;;;5.95;1.35;;;15.10;65.90;;;;;;4897257;29;20044;-75
2021/10/04 12:41:54;;;;;;;4.22;0.73;;;15.30;65.50;;;;;;4914112;29;20047;-75
2021/10/04 12:44:21;;;;;;;8.35;0.80;;;15.60;65.30;;;;;;4881004;29;20048;-75
2021/10/04 12:47:11;;;;;;;14.73;1.95;;;16.20;62.70;;;;;;4897646;29;20048;-75
2021/10/04 12:49:51;;;;;;;13.10;1.42;;;16.50;62.20;;;;;;4914603;29;20051;-75
2021/10/04 12:52:21;;;;;;;10.10;1.30;;;16.80;60.50;;;;;;4903087;29;20052;-75
2021/10/04 12:54:50;;;;;;;6.03;0.80;;;17.10;59.10;;;;;;4896674;29;20052;-76
2021/10/04 12:57:29;;;;;;;5.05;1.05;;;17.30;59.00;;;;;;4917066;29;20044;-74
2021/10/04 12:59:59;;;;;;;4.53;0.80;;;17.30;57.80;;;;;;4902120;29;20411;-75
2021/10/04 13:02:28;;;;;;;3.78;0.95;;;17.20;58.60;;;;;;4883357;29;20048;-74